Strona główna
METAR-TAF:

METAR-TAF

Lotnisko :

Port lotniczy Użhorod

Użhorod, Ukraina

Szerokość geograficzna: 48-38-05N, Długość geograficzna: 022-15-53E, wysokość: 117 m

Aktualna obserwacja pogody

Raport powstał 11 godziny i 55 minut temu, godzina 15:00 UTC
Wiatr 8 kt od północny wschód, zmienny między północ i wschód
Temperatura 18°C
Wilgotność 19%
Ciśnienie 1027 hPa
Widzialność 10 km lub więcej

METAR: UKLU 051500Z 05004MPS 010V080 9999 NSC 18/M06 Q1027 R10/090070 NOSIG

czas: 05:55 (02:55 UTC)

Prognoza

Raport powstał 12 godziny i 51 minut temu, godzina 14:04 UTC
Prognoza ważna od 05 godzina 15 UTC do 05 godzina 24 UTC
Wiatr 2 kt z kierunków zmiennych
Widzialność 10 km lub więcej

TAF: UKLU 051404Z 0515/0524 VRB01MPS 9999 NSC TX18/0515Z TN05/0524Z

Obserwacja i prognoza pogody dla ponad 4000 lotnisk (raport METAR i TAF).

Dostępne stacje oznaczono żółtymi i czerwonymi punktami na mapie.

Najedź kursorem aby zobaczyć nazwę stacji.

Kliknij aby zobaczyć obserwacje i prognozy pogody.

Aby zmienić mapę: kliknij na zielony przycisk z czarnym krzyżykiem, aby powiększyć; na zielony przycisk z myślnikiem, aby pomniejszyć; na zielone strzałki, aby przejść do map sąsiednich.


METAR-TAF: